createdAt,value
2023-04-19T00:02:06.805Z,18.33
2023-04-19T00:04:34.029Z,18.57
2023-04-19T00:07:02.771Z,18.83
2023-04-19T00:09:29.557Z,18.33
2023-04-19T00:11:56.333Z,18.93
2023-04-19T00:14:23.141Z,18.43
2023-04-19T00:16:49.977Z,18.20
2023-04-19T00:19:16.801Z,18.43
2023-04-19T00:21:43.653Z,18.53
2023-04-19T00:24:10.503Z,17.40
2023-04-19T00:26:37.353Z,18.87
2023-04-19T00:29:04.208Z,18.33
2023-04-19T00:31:31.167Z,19.33
2023-04-19T00:33:58.025Z,19.60
2023-04-19T00:36:24.950Z,19.80
2023-04-19T00:38:51.777Z,19.00
2023-04-19T00:41:18.618Z,19.77
2023-04-19T00:43:45.464Z,19.50
2023-04-19T00:46:12.524Z,20.07
2023-04-19T00:48:39.409Z,19.03
2023-04-19T00:51:06.356Z,20.10
2023-04-19T00:53:33.141Z,19.80
2023-04-19T00:56:00.668Z,21.00
2023-04-19T00:58:30.138Z,19.97
2023-04-19T01:00:57.016Z,21.00
2023-04-19T01:03:24.076Z,20.77
2023-04-19T01:05:50.938Z,19.93
2023-04-19T01:08:17.752Z,19.87
2023-04-19T01:10:44.965Z,20.53
2023-04-19T01:13:11.958Z,21.27
2023-04-19T01:15:38.802Z,20.80
2023-04-19T01:18:05.922Z,20.17
2023-04-19T01:20:32.764Z,20.73
2023-04-19T01:22:59.536Z,22.23
2023-04-19T01:25:26.920Z,21.37
2023-04-19T01:27:53.744Z,20.83
2023-04-19T01:30:20.619Z,21.40
2023-04-19T01:32:47.632Z,21.33
2023-04-19T01:35:14.531Z,21.00
2023-04-19T01:37:41.337Z,21.57
2023-04-19T01:40:09.034Z,21.20
2023-04-19T01:42:35.885Z,21.50
2023-04-19T01:45:02.785Z,21.10
2023-04-19T01:47:29.663Z,22.03
2023-04-19T01:49:56.569Z,20.70
2023-04-19T01:52:23.401Z,21.60
2023-04-19T01:54:50.260Z,21.70
2023-04-19T01:57:18.812Z,21.87
2023-04-19T01:59:45.678Z,22.00
2023-04-19T02:02:12.605Z,21.47
2023-04-19T02:04:39.562Z,22.80
2023-04-19T02:07:06.457Z,22.00
2023-04-19T02:09:38.612Z,22.13
2023-04-19T02:12:05.894Z,22.37
2023-04-19T02:14:32.790Z,22.30
2023-04-19T02:16:59.597Z,22.20
2023-04-19T02:19:26.466Z,22.00
2023-04-19T02:21:57.577Z,21.67
2023-04-19T02:24:24.924Z,23.80
2023-04-19T02:26:52.027Z,23.70
2023-04-19T02:29:19.170Z,22.27
2023-04-19T02:31:46.520Z,22.33
2023-04-19T02:34:13.706Z,24.03
2023-04-19T02:36:40.698Z,23.57
2023-04-19T02:39:07.471Z,23.33
2023-04-19T02:41:34.255Z,22.23
2023-04-19T02:44:01.052Z,21.80
2023-04-19T02:46:27.952Z,22.47
2023-04-19T02:48:54.788Z,24.63
2023-04-19T02:51:21.603Z,23.33
2023-04-19T02:53:48.388Z,24.13
2023-04-19T02:56:16.473Z,23.60
2023-04-19T02:58:43.368Z,22.60
2023-04-19T03:01:10.398Z,23.93
2023-04-19T03:03:37.257Z,23.27
2023-04-19T03:06:04.448Z,24.87
2023-04-19T03:08:31.223Z,25.10
2023-04-19T03:10:58.522Z,23.60
2023-04-19T03:13:25.596Z,24.77
2023-04-19T03:15:52.831Z,24.33
2023-04-19T03:18:19.730Z,25.73
2023-04-19T03:20:46.536Z,25.37
2023-04-19T03:23:13.328Z,25.33
2023-04-19T03:25:40.383Z,24.97
2023-04-19T03:28:07.177Z,24.57
2023-04-19T03:30:34.017Z,25.87
2023-04-19T03:33:00.995Z,26.70
2023-04-19T03:35:29.427Z,26.23
2023-04-19T03:37:56.220Z,26.60
2023-04-19T03:40:23.017Z,25.37
2023-04-19T03:42:49.863Z,26.17
2023-04-19T03:45:16.645Z,26.33
2023-04-19T03:47:43.463Z,24.90
2023-04-19T03:50:10.634Z,25.40
2023-04-19T03:52:38.754Z,25.40
2023-04-19T03:55:06.176Z,25.23
2023-04-19T03:57:32.989Z,24.43
2023-04-19T04:00:00.523Z,25.23
2023-04-19T04:02:27.443Z,24.83
2023-04-19T04:04:55.278Z,24.80
2023-04-19T04:07:23.278Z,26.30
2023-04-19T04:09:50.303Z,27.63
2023-04-19T04:12:17.235Z,24.90
2023-04-19T04:14:44.056Z,24.20
2023-04-19T04:17:11.848Z,23.77
2023-04-19T04:19:38.707Z,25.10
2023-04-19T04:22:06.797Z,24.13
2023-04-19T04:24:41.400Z,25.40
2023-04-19T04:27:10.217Z,24.40
2023-04-19T04:29:37.551Z,23.73
2023-04-19T04:32:08.269Z,25.57
2023-04-19T04:34:36.754Z,26.10
2023-04-19T04:37:04.075Z,26.23
2023-04-19T04:39:30.983Z,26.03
2023-04-19T04:41:57.895Z,25.17
2023-04-19T04:44:24.984Z,26.67
2023-04-19T04:46:51.935Z,26.10
2023-04-19T04:49:18.851Z,26.27
2023-04-19T04:51:45.790Z,26.87
2023-04-19T04:54:12.557Z,26.10
2023-04-19T04:56:39.460Z,28.67
2023-04-19T04:59:07.725Z,26.33
2023-04-19T05:01:34.607Z,26.50
2023-04-19T05:04:01.549Z,26.70
2023-04-19T05:06:28.461Z,26.20
2023-04-19T05:08:55.407Z,28.43
2023-04-19T05:11:22.270Z,25.63
2023-04-19T05:13:49.065Z,27.13
2023-04-19T05:16:16.951Z,26.20
2023-04-19T05:18:43.922Z,25.30
2023-04-19T05:21:10.756Z,25.10
2023-04-19T05:23:38.255Z,23.60
2023-04-19T05:26:05.439Z,24.67
2023-04-19T05:28:32.382Z,24.70
2023-04-19T05:30:59.314Z,23.83
2023-04-19T05:33:26.138Z,24.23
2023-04-19T05:35:52.918Z,24.20
2023-04-19T05:38:19.825Z,22.50
2023-04-19T05:40:46.710Z,24.60
2023-04-19T05:43:13.516Z,24.50
2023-04-19T05:45:40.355Z,23.67
2023-04-19T05:48:07.166Z,22.80
2023-04-19T05:50:34.872Z,23.00
2023-04-19T05:53:01.764Z,23.30
2023-04-19T05:55:28.574Z,23.67
2023-04-19T05:57:55.694Z,23.50
2023-04-19T06:00:22.642Z,22.93
2023-04-19T06:02:49.625Z,21.97
2023-04-19T06:05:16.784Z,23.13
2023-04-19T06:07:54.563Z,20.43
2023-04-19T06:10:23.611Z,22.03
2023-04-19T06:12:50.451Z,21.80
2023-04-19T06:15:17.522Z,20.83
2023-04-19T06:17:44.533Z,20.87
2023-04-19T06:20:12.361Z,20.17
2023-04-19T06:22:45.090Z,20.03
2023-04-19T06:25:12.563Z,19.50
2023-04-19T06:27:40.742Z,18.83
2023-04-19T06:30:09.246Z,19.43
2023-04-19T06:32:36.222Z,19.30
2023-04-19T06:35:03.590Z,17.27
2023-04-19T06:37:30.372Z,19.40
2023-04-19T06:39:57.390Z,19.20
2023-04-19T06:42:25.466Z,19.23
2023-04-19T06:44:52.359Z,18.73
2023-04-19T06:47:20.273Z,17.93
2023-04-19T06:49:47.132Z,17.37
2023-04-19T06:52:13.946Z,17.73
2023-04-19T06:54:41.817Z,18.07
2023-04-19T06:57:08.685Z,17.27
2023-04-19T06:59:39.812Z,17.53
2023-04-19T07:02:06.925Z,17.60
2023-04-19T07:04:34.065Z,17.67
2023-04-19T07:07:01.006Z,17.40
2023-04-19T07:09:28.210Z,19.20
2023-04-19T07:11:55.088Z,16.47
2023-04-19T07:14:21.963Z,16.47
2023-04-19T07:16:50.247Z,16.60
2023-04-19T07:19:19.469Z,16.57
2023-04-19T07:21:46.313Z,16.80
2023-04-19T07:24:13.252Z,16.87
2023-04-19T07:26:40.154Z,17.03
2023-04-19T07:29:07.037Z,15.33
2023-04-19T07:31:33.970Z,15.53
2023-04-19T07:34:00.836Z,15.70
2023-04-19T07:36:27.820Z,15.23
2023-04-19T07:38:54.887Z,15.20
2023-04-19T07:41:21.655Z,16.00
2023-04-19T07:43:48.664Z,16.77
2023-04-19T07:46:18.850Z,15.97
2023-04-19T07:48:46.454Z,15.33
2023-04-19T07:51:14.395Z,15.33
2023-04-19T07:53:41.839Z,16.00
2023-04-19T07:56:12.124Z,15.60
2023-04-19T07:58:39.784Z,15.07
2023-04-19T08:01:07.114Z,14.90
2023-04-19T08:03:34.328Z,13.93
2023-04-19T08:06:02.415Z,13.07
2023-04-19T08:08:29.193Z,13.87
2023-04-19T08:10:56.015Z,14.03
2023-04-19T08:13:23.109Z,12.20
2023-04-19T08:16:27.131Z,12.83
2023-04-19T08:18:37.091Z,12.50
2023-04-19T08:21:04.258Z,12.20
2023-04-19T08:23:41.202Z,12.13
2023-04-19T08:26:12.040Z,11.48
2023-04-19T08:28:38.817Z,11.17
2023-04-19T08:31:09.026Z,12.05
2023-04-19T08:33:35.957Z,11.77
2023-04-19T08:36:02.786Z,11.70
2023-04-19T08:38:29.583Z,11.23
2023-04-19T08:40:56.552Z,11.23
2023-04-19T08:43:24.690Z,10.67
2023-04-19T08:45:51.680Z,10.85
2023-04-19T08:48:18.717Z,11.07
2023-04-19T08:51:00.726Z,11.18
2023-04-19T08:53:33.279Z,11.10
2023-04-19T08:58:51.925Z,10.38
2023-04-19T09:01:33.864Z,10.75
2023-04-19T09:04:26.575Z,11.00
2023-04-19T09:06:52.797Z,9.80
2023-04-19T09:11:59.638Z,11.07
2023-04-19T09:14:27.077Z,10.60
2023-04-19T09:16:53.903Z,11.52
2023-04-19T09:19:24.922Z,11.48
2023-04-19T09:21:54.430Z,10.98
2023-04-19T09:25:13.918Z,11.98
2023-04-19T09:27:30.219Z,11.30
2023-04-19T09:29:57.762Z,10.70
2023-04-19T09:32:25.120Z,11.18
2023-04-19T09:34:59.524Z,10.77
2023-04-19T09:37:51.592Z,10.38
2023-04-19T09:40:23.675Z,10.85
2023-04-19T09:45:29.795Z,10.00
2023-04-19T09:48:05.891Z,10.82
2023-04-19T09:50:34.045Z,10.98
2023-04-19T09:53:09.097Z,10.82
2023-04-19T09:55:44.733Z,9.93
2023-04-19T09:58:20.835Z,11.15
2023-04-19T10:00:51.320Z,10.30
2023-04-19T10:03:22.094Z,10.70
2023-04-19T10:05:49.204Z,11.80
2023-04-19T10:08:16.366Z,11.02
2023-04-19T10:10:45.569Z,11.10
2023-04-19T10:15:51.233Z,11.85
2023-04-19T10:18:20.639Z,12.00
2023-04-19T10:21:01.717Z,12.38
2023-04-19T10:23:29.037Z,11.98
2023-04-19T10:25:57.580Z,11.98
2023-04-19T10:28:24.558Z,13.43
2023-04-19T10:31:03.855Z,12.13
2023-04-19T10:33:32.184Z,10.82
2023-04-19T10:35:59.693Z,12.13
2023-04-19T10:38:37.247Z,11.77
2023-04-19T10:41:05.460Z,12.63
2023-04-19T10:43:34.321Z,11.85
2023-04-19T10:46:02.502Z,11.15
2023-04-19T10:48:35.674Z,11.88
2023-04-19T10:51:03.276Z,11.80
2023-04-19T10:53:45.674Z,11.32
2023-04-19T10:56:12.849Z,11.77
2023-04-19T10:59:01.339Z,12.23
2023-04-19T11:01:40.793Z,12.07
2023-04-19T11:04:08.515Z,10.48
2023-04-19T11:06:39.484Z,11.65
2023-04-19T11:09:07.306Z,11.20
2023-04-19T11:11:35.936Z,11.60
2023-04-19T11:14:04.313Z,10.55
2023-04-19T11:16:45.214Z,10.32
2023-04-19T11:19:19.666Z,10.02
2023-04-19T11:21:47.040Z,11.02
2023-04-19T11:24:16.240Z,10.68
2023-04-19T11:26:44.145Z,10.57
2023-04-19T11:29:10.988Z,11.15
2023-04-19T11:31:37.944Z,10.77
2023-04-19T11:34:04.903Z,11.18
2023-04-19T11:36:32.389Z,10.45
2023-04-19T11:38:59.262Z,10.57
2023-04-19T11:41:26.057Z,10.63
2023-04-19T11:43:52.922Z,10.32
2023-04-19T11:46:19.761Z,10.27
2023-04-19T11:48:53.318Z,10.18
2023-04-19T11:51:20.449Z,10.40
2023-04-19T11:53:47.355Z,10.27
2023-04-19T11:56:15.527Z,10.43
2023-04-19T11:58:48.841Z,10.73
2023-04-19T12:01:20.015Z,10.27
2023-04-19T12:03:47.898Z,9.98
2023-04-19T12:06:28.681Z,9.07
2023-04-19T12:08:56.225Z,9.02
2023-04-19T12:11:24.431Z,8.98
2023-04-19T12:14:13.831Z,10.07
2023-04-19T12:16:41.231Z,9.10
2023-04-19T12:19:18.070Z,9.38
2023-04-19T12:21:46.123Z,9.07
2023-04-19T12:24:14.959Z,7.30
2023-04-19T12:26:58.113Z,7.63
2023-04-19T12:29:27.529Z,7.25
2023-04-19T12:31:54.421Z,6.28
2023-04-19T12:34:21.228Z,5.15
2023-04-19T12:36:48.057Z,6.65
2023-04-19T12:39:14.997Z,5.78
2023-04-19T12:41:41.996Z,5.95
2023-04-19T12:44:08.901Z,5.60
2023-04-19T12:46:36.751Z,5.78
2023-04-19T12:49:03.626Z,5.35
2023-04-19T12:51:31.750Z,5.65
2023-04-19T12:53:58.619Z,5.65
2023-04-19T12:56:25.584Z,5.95
2023-04-19T12:58:53.028Z,6.15
2023-04-19T13:01:19.902Z,5.90
2023-04-19T13:03:46.899Z,5.50
2023-04-19T13:06:15.549Z,5.00
2023-04-19T13:08:46.597Z,4.60
2023-04-19T13:11:14.845Z,5.47
2023-04-19T13:13:41.701Z,4.25
2023-04-19T13:16:08.585Z,4.38
2023-04-19T13:18:35.520Z,3.70
2023-04-19T13:21:02.314Z,3.78
2023-04-19T13:23:29.188Z,4.35
2023-04-19T13:25:56.093Z,3.83
2023-04-19T13:28:22.914Z,4.10
2023-04-19T13:30:49.823Z,3.72
2023-04-19T13:33:16.676Z,4.30
2023-04-19T13:35:45.050Z,4.00
2023-04-19T13:38:11.974Z,4.28
2023-04-19T13:40:38.764Z,3.83
2023-04-19T13:43:05.591Z,4.25
2023-04-19T13:45:32.426Z,3.63
2023-04-19T13:47:59.270Z,3.55
2023-04-19T13:50:26.088Z,3.92
2023-04-19T13:52:53.031Z,4.78
2023-04-19T13:55:20.020Z,3.90
2023-04-19T13:57:46.814Z,4.05
2023-04-19T14:00:14.343Z,4.15
2023-04-19T14:02:41.761Z,3.72
2023-04-19T14:05:09.260Z,3.92
2023-04-19T14:07:36.204Z,3.38
2023-04-19T14:10:03.039Z,3.88
2023-04-19T14:12:29.896Z,3.80
2023-04-19T14:14:56.754Z,3.58
2023-04-19T14:17:23.591Z,4.35
2023-04-19T14:19:50.372Z,3.70
2023-04-19T14:22:17.456Z,3.35
2023-04-19T14:24:45.918Z,3.65
2023-04-19T14:27:12.721Z,3.80
2023-04-19T14:29:39.844Z,3.92
2023-04-19T14:32:21.373Z,5.10
2023-04-19T14:34:52.544Z,4.32
2023-04-19T14:37:19.511Z,4.45
2023-04-19T14:39:46.510Z,4.63
2023-04-19T14:42:13.588Z,4.20
2023-04-19T14:44:40.878Z,4.80
2023-04-19T14:47:07.838Z,4.45
2023-04-19T14:49:34.680Z,5.03
2023-04-19T14:52:01.551Z,4.72
2023-04-19T14:54:28.385Z,5.13
2023-04-19T14:56:55.291Z,5.18
2023-04-19T14:59:22.197Z,3.72
2023-04-19T15:01:49.087Z,4.15
2023-04-19T15:04:16.593Z,3.85
2023-04-19T15:06:43.542Z,3.95
2023-04-19T15:09:10.432Z,4.00
2023-04-19T15:11:37.282Z,4.47
2023-04-19T15:14:04.076Z,3.85
2023-04-19T15:16:31.362Z,4.30
2023-04-19T15:18:58.257Z,4.13
2023-04-19T15:21:25.088Z,4.60
2023-04-19T15:23:51.903Z,3.90
2023-04-19T15:26:18.942Z,3.92
2023-04-19T15:28:45.821Z,4.55
2023-04-19T15:31:12.680Z,4.85
2023-04-19T15:33:39.626Z,4.45
2023-04-19T15:36:06.758Z,4.75
2023-04-19T15:38:33.606Z,4.80
2023-04-19T15:41:03.585Z,4.90
2023-04-19T15:43:31.532Z,5.00
2023-04-19T15:45:58.339Z,3.85
2023-04-19T15:48:25.277Z,4.28
2023-04-19T15:50:52.076Z,4.28
2023-04-19T15:53:18.914Z,4.28
2023-04-19T15:55:47.978Z,3.80
2023-04-19T15:58:15.521Z,4.15
2023-04-19T16:00:42.315Z,4.13
2023-04-19T16:03:12.415Z,3.58
2023-04-19T16:05:40.130Z,3.60
2023-04-19T16:08:09.959Z,3.65
2023-04-19T16:10:36.954Z,3.85
2023-04-19T16:13:04.835Z,4.10
2023-04-19T16:15:32.251Z,3.75
2023-04-19T16:17:59.119Z,3.50
2023-04-19T16:20:26.023Z,3.58
2023-04-19T16:22:52.920Z,3.83
2023-04-19T16:25:19.761Z,4.15
2023-04-19T16:27:46.600Z,4.25
2023-04-19T16:30:14.002Z,3.60
2023-04-19T16:32:41.619Z,3.42
2023-04-19T16:35:08.817Z,3.40
2023-04-19T16:37:35.914Z,3.78
2023-04-19T16:40:08.498Z,3.53
2023-04-19T16:42:40.056Z,3.95
2023-04-19T16:45:07.619Z,3.33
2023-04-19T16:47:34.862Z,3.47
2023-04-19T16:50:01.903Z,3.72
2023-04-19T16:52:30.653Z,3.72
2023-04-19T16:54:57.484Z,4.05
2023-04-19T16:57:24.416Z,4.25
2023-04-19T16:59:51.295Z,3.40
2023-04-19T17:02:18.268Z,3.90
2023-04-19T17:04:45.463Z,3.70
2023-04-19T17:07:12.678Z,3.53
2023-04-19T17:09:39.514Z,3.90
2023-04-19T17:12:06.458Z,4.45
2023-04-19T17:14:34.553Z,4.43
2023-04-19T17:17:01.396Z,4.03
2023-04-19T17:19:28.222Z,4.20
2023-04-19T17:21:54.998Z,4.15
2023-04-19T17:24:22.264Z,4.32
2023-04-19T17:26:50.021Z,3.90
2023-04-19T17:29:17.158Z,4.30
2023-04-19T17:31:44.286Z,3.92
2023-04-19T17:34:11.310Z,4.40
2023-04-19T17:36:38.089Z,3.92
2023-04-19T17:39:06.726Z,4.05
2023-04-19T17:41:34.051Z,4.45
2023-04-19T17:44:00.875Z,4.35
2023-04-19T17:46:27.710Z,4.50
2023-04-19T17:48:55.525Z,4.82
2023-04-19T17:51:22.565Z,4.88
2023-04-19T17:53:49.370Z,5.37
2023-04-19T17:56:16.196Z,4.90
2023-04-19T17:58:43.085Z,4.90
2023-04-19T18:01:10.481Z,5.53
2023-04-19T18:03:38.170Z,4.83
2023-04-19T18:06:05.263Z,4.83
2023-04-19T18:08:32.084Z,6.03
2023-04-19T18:10:58.953Z,4.83
2023-04-19T18:13:26.622Z,4.80
2023-04-19T18:15:53.610Z,5.47
2023-04-19T18:18:20.638Z,4.53
2023-04-19T18:20:47.478Z,5.03
2023-04-19T18:23:14.401Z,4.23
2023-04-19T18:25:41.292Z,4.43
2023-04-19T18:28:08.081Z,4.53
2023-04-19T18:30:35.944Z,4.17
2023-04-19T18:33:02.831Z,4.13
2023-04-19T18:35:29.974Z,4.43
2023-04-19T18:37:57.826Z,4.80
2023-04-19T18:40:24.646Z,5.57
2023-04-19T18:42:51.447Z,5.63
2023-04-19T18:45:19.084Z,6.17
2023-04-19T18:47:46.063Z,6.23
2023-04-19T18:50:15.419Z,5.63
2023-04-19T18:52:45.514Z,6.10
2023-04-19T18:55:13.782Z,6.67
2023-04-19T18:57:40.670Z,7.17
2023-04-19T19:00:11.280Z,7.23
2023-04-19T19:02:40.457Z,6.63
2023-04-19T19:05:09.262Z,6.87
2023-04-19T19:07:37.694Z,8.17
2023-04-19T19:10:18.500Z,7.23
2023-04-19T19:12:47.779Z,7.53
2023-04-19T19:15:14.712Z,8.10
2023-04-19T19:17:41.582Z,6.83
2023-04-19T19:20:10.093Z,7.27
2023-04-19T19:22:37.021Z,7.30
2023-04-19T19:25:04.232Z,7.90
2023-04-19T19:27:31.078Z,7.50
2023-04-19T19:29:58.789Z,7.70
2023-04-19T19:32:25.842Z,7.37
2023-04-19T19:34:56.397Z,7.33
2023-04-19T19:37:27.830Z,7.47
2023-04-19T19:39:56.187Z,6.93
2023-04-19T19:42:24.990Z,6.67
2023-04-19T19:44:55.482Z,6.47
2023-04-19T19:47:23.805Z,6.73
2023-04-19T19:50:31.563Z,7.00
2023-04-19T19:52:37.698Z,6.50
2023-04-19T19:55:04.806Z,6.57
2023-04-19T20:02:34.248Z,6.20
2023-04-19T20:05:01.681Z,6.20
2023-04-19T20:07:42.259Z,7.00
2023-04-19T20:10:15.656Z,6.90
2023-04-19T20:12:43.386Z,6.20
2023-04-19T20:15:13.426Z,6.87
2023-04-19T20:17:40.798Z,6.60
2023-04-19T20:20:11.520Z,6.17
2023-04-19T20:22:38.569Z,6.33
2023-04-19T20:25:05.842Z,7.47
2023-04-19T20:27:33.286Z,7.90
2023-04-19T20:30:00.940Z,7.30
2023-04-19T20:32:27.946Z,7.73
2023-04-19T20:34:54.848Z,7.37
2023-04-19T20:37:22.531Z,7.47
2023-04-19T20:39:49.308Z,7.10
2023-04-19T20:42:16.197Z,7.57
2023-04-19T20:44:43.048Z,7.00
2023-04-19T20:47:10.458Z,6.93
2023-04-19T20:49:37.278Z,7.53
2023-04-19T20:52:04.170Z,7.30
2023-04-19T20:54:31.252Z,7.40
2023-04-19T20:57:02.717Z,7.50
2023-04-19T20:59:29.506Z,8.00
2023-04-19T21:01:56.587Z,7.77
2023-04-19T21:04:23.610Z,8.20
2023-04-19T21:06:50.551Z,8.27
2023-04-19T21:09:17.605Z,7.20
2023-04-19T21:11:44.730Z,8.03
2023-04-19T21:14:11.574Z,7.20
2023-04-19T21:16:38.429Z,6.90
2023-04-19T21:19:05.199Z,6.90
2023-04-19T21:21:32.608Z,6.67
2023-04-19T21:23:59.564Z,7.10
2023-04-19T21:26:26.419Z,7.37
2023-04-19T21:28:53.223Z,6.73
2023-04-19T21:31:20.139Z,7.10
2023-04-19T21:33:46.945Z,6.93
2023-04-19T21:36:13.748Z,6.53
2023-04-19T21:38:40.585Z,7.13
2023-04-19T21:41:08.105Z,7.17
2023-04-19T21:43:34.924Z,6.80
2023-04-19T21:46:04.756Z,6.20
2023-04-19T21:48:31.992Z,6.87
2023-04-19T21:50:58.845Z,6.43
2023-04-19T21:53:25.744Z,6.87
2023-04-19T21:55:52.597Z,6.73
2023-04-19T21:58:19.411Z,6.77
2023-04-19T22:00:46.268Z,6.63
2023-04-19T22:03:13.236Z,6.23
2023-04-19T22:05:41.034Z,6.33
2023-04-19T22:08:07.858Z,5.73
2023-04-19T22:10:34.669Z,6.20
2023-04-19T22:13:03.476Z,5.70
2023-04-19T22:15:30.583Z,5.83
2023-04-19T22:17:58.205Z,5.53
2023-04-19T22:20:26.873Z,6.50
2023-04-19T22:22:53.712Z,6.23
2023-04-19T22:25:20.651Z,5.63
2023-04-19T22:27:48.908Z,5.70
2023-04-19T22:30:16.282Z,5.57
2023-04-19T22:32:43.185Z,5.50
2023-04-19T22:35:10.204Z,5.50
2023-04-19T22:37:37.074Z,5.80
2023-04-19T22:40:06.945Z,5.47
2023-04-19T22:42:33.857Z,5.70
2023-04-19T22:45:00.790Z,5.60
2023-04-19T22:47:28.137Z,5.40
2023-04-19T22:49:55.018Z,5.97
2023-04-19T22:52:21.828Z,4.87
2023-04-19T22:54:48.609Z,5.03
2023-04-19T22:57:15.464Z,4.97
2023-04-19T22:59:42.277Z,5.10
2023-04-19T23:02:09.163Z,5.57
2023-04-19T23:04:36.108Z,5.30
2023-04-19T23:07:03.871Z,5.47
2023-04-19T23:09:30.768Z,6.10
2023-04-19T23:12:00.823Z,5.17
2023-04-19T23:14:29.236Z,4.37
2023-04-19T23:16:57.176Z,4.80
2023-04-19T23:19:25.459Z,4.43
2023-04-19T23:21:52.250Z,5.37
2023-04-19T23:24:19.616Z,5.23
2023-04-19T23:26:46.489Z,6.10
2023-04-19T23:29:13.304Z,5.43
2023-04-19T23:31:40.264Z,4.97
2023-04-19T23:34:07.135Z,4.43
2023-04-19T23:36:33.962Z,4.73
2023-04-19T23:39:01.237Z,5.03
2023-04-19T23:41:28.255Z,5.23
2023-04-19T23:43:55.131Z,5.43
2023-04-19T23:46:22.000Z,4.47
2023-04-19T23:48:48.810Z,4.50
2023-04-19T23:51:15.672Z,4.13
2023-04-19T23:53:42.474Z,4.63
2023-04-19T23:56:09.320Z,5.07
2023-04-19T23:58:36.263Z,5.50
